Nearby METAR Reports

 

EGGP - Liverpool Airpor, United Kingdom
Distance from station: ESE 7mi, 11km
Updated: 27/02/2021 06:20
Clear
Clear
 Wind from varies
Wind: varies 3 mph , 6 km/h
Temperature: 3°C
Dew Point: 2°C
Humidity: 93%
Barometer: 1040 hPa
Clouds: Clear
Visibility: 6 miles , 10 km
2021/02/27 06:20 EGGP 270620Z AUTO VRB03KT 9999 NCD 03/02 Q1040
EGNR - Hawarden (aut), United Kingdom
Distance from station: S 13mi, 20km
Updated: 26/02/2021 19:20
NOT Current
Clear
Clear
 Wind from WSW
Wind: WSW 6 mph , 9 km/h
Temperature: 7°C
Wind Chill: 6°C
Dew Point: 3°C
Humidity: 76%
Barometer: 1038 hPa
Summary: Clear
Visibility: greater than 7 miles , 10 km
2021/02/26 19:20 EGNR 261920Z 24005KT CAVOK 07/03 Q1038
EGOW - Woodvale Raf, United Kingdom
Distance from station: N 16mi, 26km
Updated: 22/02/2021 15:20
NOT Current
Few Clouds
Few Clouds
 Wind from W
Wind: W 6 mph , 9 km/h
Temperature: 12°C
Dew Point: 5°C
Humidity: 63%
Barometer: 1015 hPa
Clouds: Few Clouds
Visibility: 6 miles , 10 km
Cloud details: Few Clouds 914 m
2021/02/22 15:20 EGOW 221520Z 26005KT 9999 FEW030 12/05 Q1015 RMK BLU
 
EGNO - Wharton, United Kingdom
Distance from station: N 28mi, 45km
Updated: 26/02/2021 15:20
NOT Current
Few Clouds
Few Clouds
 Wind from W
Wind: W 10 mph , 17 km/h
Temperature: 10°C
Wind Chill: 8°C
Dew Point: 6°C
Humidity: 76%
Barometer: 1037 hPa
Clouds: Few Clouds
Visibility: 6 miles , 10 km
Cloud details: Few Clouds 610 m
2021/02/26 15:20 EGNO 261520Z 27009KT 9999 FEW020 10/06 Q1037
EGNH - Blackpool Airpor, United Kingdom
Distance from station: N 29mi, 47km
Updated: 27/02/2021 06:20
Few Clouds
Few Clouds
 Wind from S
Wind: S 6 mph , 9 km/h
Temperature: 1°C
Wind Chill: -2°C
Dew Point: 1°C
Humidity: 100%
Barometer: 1040 hPa
Clouds: Few Clouds
Visibility: 6 miles , 10 km
Cloud details: Few Clouds 1097 m
2021/02/27 06:20 EGNH 270620Z 17005KT 9999 FEW036 01/01 Q1040
EGCC - Manchester Intl, United Kingdom
Distance from station: E 31mi, 49km
Updated: 27/02/2021 06:20
Partly cloudy
Partly cloudy
 Wind from SSE
Wind: SSE 3 mph , 6 km/h
Temperature: 0°C
Dew Point: -1°C
Humidity: 93%
Barometer: 1040 hPa
Clouds: Partly cloudy
Visibility: 4 miles , 7 km
2021/02/27 06:20 EGCC 270620Z 16003KT 7000 R23R/0900 NSC M00/M01 Q1040
 
EGOS - Shawbury Raf, United Kingdom
Distance from station: SSE 40mi, 65km
Updated: 27/02/2021 05:50
Fog, Mostly cloudy
Fog, Mostly cloudy
 Wind from SW
Wind: SW 2 mph , 4 km/h
Temperature: -1°C
Dew Point: -1°C
Humidity: 100%
Barometer: 1040 hPa
Summary: Fog
Clouds: Mostly cloudy
Visibility: 0 mile , 0 km
Cloud details: Mostly cloudy 91 m
2021/02/27 05:50 EGOS 270550Z AUTO 22002KT 0150 FG BKN003/// M01/M01 Q1040